createdAt,value
2019-03-22T00:02:26.916Z,8.70
2019-03-22T00:04:56.498Z,8.70
2019-03-22T00:07:25.602Z,8.70
2019-03-22T00:09:54.950Z,8.60
2019-03-22T00:12:23.984Z,8.60
2019-03-22T00:14:52.958Z,8.70
2019-03-22T00:17:22.217Z,8.80
2019-03-22T00:19:51.404Z,8.80
2019-03-22T00:22:20.394Z,8.70
2019-03-22T00:24:49.489Z,8.70
2019-03-22T00:27:18.645Z,8.60
2019-03-22T00:29:47.453Z,8.50
2019-03-22T00:32:16.837Z,8.60
2019-03-22T00:34:46.229Z,8.60
2019-03-22T00:37:15.486Z,8.50
2019-03-22T00:39:44.567Z,8.50
2019-03-22T00:42:13.751Z,8.60
2019-03-22T00:44:42.745Z,8.40
2019-03-22T00:47:12.528Z,8.50
2019-03-22T00:49:41.876Z,8.50
2019-03-22T00:52:22.212Z,8.60
2019-03-22T00:54:50.209Z,8.50
2019-03-22T00:57:28.079Z,8.30
2019-03-22T00:59:48.742Z,8.30
2019-03-22T01:02:17.134Z,8.10
2019-03-22T01:04:45.030Z,8.20
2019-03-22T01:07:13.206Z,8.30
2019-03-22T01:09:41.009Z,8.20
2019-03-22T01:12:09.777Z,8.10
2019-03-22T01:14:41.119Z,8.10
2019-03-22T01:17:09.346Z,8.20
2019-03-22T01:19:37.057Z,8.10
2019-03-22T01:22:05.018Z,8.10
2019-03-22T01:24:32.740Z,8.20
2019-03-22T01:27:01.310Z,8.20
2019-03-22T01:29:29.622Z,8.10
2019-03-22T01:31:57.685Z,8.00
2019-03-22T01:34:27.140Z,8.10
2019-03-22T01:36:55.244Z,8.10
2019-03-22T01:39:24.682Z,7.90
2019-03-22T01:41:53.406Z,8.00
2019-03-22T01:44:22.549Z,7.90
2019-03-22T01:46:51.298Z,7.90
2019-03-22T01:49:20.444Z,7.90
2019-03-22T01:51:48.840Z,8.00
2019-03-22T01:54:17.894Z,8.00
2019-03-22T01:56:47.062Z,8.10
2019-03-22T01:59:16.489Z,7.90
2019-03-22T02:01:45.659Z,7.80
2019-03-22T02:04:14.780Z,7.80
2019-03-22T02:06:43.818Z,7.80
2019-03-22T02:09:12.837Z,7.80
2019-03-22T02:11:41.647Z,7.80
2019-03-22T02:14:11.711Z,7.80
2019-03-22T02:16:39.882Z,7.90
2019-03-22T02:19:09.443Z,7.90
2019-03-22T02:21:39.570Z,8.00
2019-03-22T02:24:08.454Z,7.80
2019-03-22T02:26:37.445Z,7.70
2019-03-22T02:29:06.135Z,7.70
2019-03-22T02:31:35.128Z,7.80
2019-03-22T02:34:04.087Z,7.70
2019-03-22T02:36:33.179Z,7.60
2019-03-22T02:39:02.194Z,7.70
2019-03-22T02:41:31.211Z,7.90
2019-03-22T02:44:00.259Z,7.80
2019-03-22T02:46:29.187Z,7.80
2019-03-22T02:48:58.478Z,7.90
2019-03-22T02:51:27.194Z,7.80
2019-03-22T02:53:56.829Z,7.60
2019-03-22T02:56:25.580Z,7.60
2019-03-22T02:58:54.570Z,7.60
2019-03-22T03:01:23.355Z,7.80
2019-03-22T03:03:52.487Z,7.80
2019-03-22T03:06:21.540Z,7.80
2019-03-22T03:08:50.800Z,7.80
2019-03-22T03:11:19.712Z,7.70
2019-03-22T03:13:48.993Z,7.70
2019-03-22T03:16:18.538Z,7.60
2019-03-22T03:18:47.596Z,7.60
2019-03-22T03:21:16.620Z,7.70
2019-03-22T03:23:45.426Z,7.60
2019-03-22T03:26:14.570Z,7.60
2019-03-22T03:28:43.854Z,7.70
2019-03-22T03:31:12.964Z,7.50
2019-03-22T03:33:42.061Z,7.30
2019-03-22T03:36:11.259Z,7.50
2019-03-22T03:38:40.405Z,7.40
2019-03-22T03:41:08.428Z,7.30
2019-03-22T03:43:37.419Z,7.30
2019-03-22T03:46:06.363Z,7.50
2019-03-22T03:48:34.468Z,7.30
2019-03-22T03:51:03.426Z,7.40
2019-03-22T03:53:32.630Z,7.50
2019-03-22T03:56:02.265Z,7.60
2019-03-22T03:58:31.686Z,7.50
2019-03-22T04:01:00.812Z,7.40
2019-03-22T04:03:29.666Z,7.30
2019-03-22T04:05:58.373Z,7.30
2019-03-22T04:08:27.877Z,7.40
2019-03-22T04:10:56.863Z,7.40
2019-03-22T04:13:25.896Z,7.40
2019-03-22T04:15:54.674Z,7.50
2019-03-22T04:18:23.979Z,7.60
2019-03-22T04:20:52.820Z,7.40
2019-03-22T04:23:21.446Z,7.30
2019-03-22T04:25:50.121Z,7.30
2019-03-22T04:28:18.979Z,7.10
2019-03-22T04:30:48.316Z,7.20
2019-03-22T04:33:17.246Z,7.20
2019-03-22T04:35:45.965Z,7.20
2019-03-22T04:38:14.831Z,7.10
2019-03-22T04:40:43.537Z,7.10
2019-03-22T04:43:12.242Z,7.10
2019-03-22T04:45:41.837Z,7.10
2019-03-22T04:48:17.869Z,7.20
2019-03-22T04:50:49.350Z,7.20
2019-03-22T04:53:21.940Z,7.20
2019-03-22T04:55:55.027Z,7.10
2019-03-22T04:58:24.933Z,7.10
2019-03-22T05:00:55.870Z,7.10
2019-03-22T05:03:25.720Z,7.10
2019-03-22T05:05:55.757Z,7.10
2019-03-22T05:08:27.374Z,7.00
2019-03-22T05:10:58.702Z,7.00
2019-03-22T05:13:26.838Z,7.10
2019-03-22T05:15:56.246Z,7.10
2019-03-22T05:18:27.890Z,6.90
2019-03-22T05:20:55.785Z,6.90
2019-03-22T05:23:25.782Z,6.80
2019-03-22T05:25:57.652Z,6.90
2019-03-22T05:28:27.887Z,7.00
2019-03-22T05:31:33.437Z,7.00
2019-03-22T05:34:02.239Z,7.20
2019-03-22T05:39:19.955Z,7.10
2019-03-22T05:41:47.969Z,7.10
2019-03-22T05:44:15.721Z,7.00
2019-03-22T05:46:43.644Z,7.00
2019-03-22T05:49:11.880Z,7.00
2019-03-22T05:51:40.007Z,7.10
2019-03-22T05:54:07.835Z,7.20
2019-03-22T05:56:35.794Z,7.30
2019-03-22T05:59:03.678Z,7.30
2019-03-22T06:01:31.533Z,7.40
2019-03-22T06:03:59.294Z,7.40
2019-03-22T06:06:26.936Z,7.50
2019-03-22T06:08:54.655Z,7.50
2019-03-22T06:11:22.438Z,7.60
2019-03-22T06:13:50.709Z,7.80
2019-03-22T06:16:18.226Z,7.70
2019-03-22T06:18:46.111Z,7.80
2019-03-22T06:21:14.080Z,7.90
2019-03-22T06:23:41.839Z,7.90
2019-03-22T06:26:09.603Z,8.10
2019-03-22T06:28:37.745Z,8.20
2019-03-22T06:31:06.705Z,8.10
2019-03-22T06:33:36.005Z,8.20
2019-03-22T06:36:04.718Z,8.20
2019-03-22T06:38:33.601Z,8.30
2019-03-22T06:41:03.425Z,8.60
2019-03-22T06:43:32.694Z,8.90
2019-03-22T06:46:01.910Z,8.90
2019-03-22T06:48:30.839Z,9.10
2019-03-22T06:50:59.990Z,9.40
2019-03-22T06:53:29.057Z,9.50
2019-03-22T06:55:58.390Z,9.60
2019-03-22T06:58:27.530Z,9.50
2019-03-22T07:00:57.109Z,9.40
2019-03-22T07:03:25.210Z,9.50
2019-03-22T07:05:54.397Z,9.80
2019-03-22T07:08:23.582Z,10.00
2019-03-22T07:10:52.605Z,10.10
2019-03-22T07:13:21.398Z,10.30
2019-03-22T07:15:50.630Z,10.70
2019-03-22T07:18:19.798Z,10.80
2019-03-22T07:20:48.592Z,11.50
2019-03-22T07:23:17.912Z,12.30
2019-03-22T07:25:47.038Z,12.80
2019-03-22T07:28:15.952Z,13.90
2019-03-22T07:30:45.030Z,14.30
2019-03-22T07:33:13.663Z,15.60
2019-03-22T07:35:42.775Z,15.50
2019-03-22T07:38:11.701Z,16.80
2019-03-22T07:40:40.693Z,16.60
2019-03-22T07:43:09.667Z,16.30
2019-03-22T07:45:38.955Z,17.50
2019-03-22T07:48:07.750Z,18.40
2019-03-22T07:50:36.847Z,18.90
2019-03-22T07:53:05.614Z,18.50
2019-03-22T07:55:35.139Z,19.10
2019-03-22T07:58:04.437Z,20.50
2019-03-22T08:00:33.541Z,21.40
2019-03-22T08:03:02.960Z,21.30
2019-03-22T08:05:32.544Z,20.50
2019-03-22T08:08:02.492Z,19.90
2019-03-22T08:10:30.970Z,19.70
2019-03-22T08:12:59.675Z,20.40
2019-03-22T08:15:30.493Z,20.10
2019-03-22T08:18:07.888Z,20.20
2019-03-22T08:20:38.647Z,20.40
2019-03-22T08:23:17.344Z,21.50
2019-03-22T08:25:45.569Z,21.30
2019-03-22T08:28:13.223Z,22.00
2019-03-22T08:30:43.172Z,22.80
2019-03-22T08:33:11.887Z,21.60
2019-03-22T08:35:40.319Z,22.20
2019-03-22T08:38:08.087Z,23.10
2019-03-22T08:40:36.117Z,24.60
2019-03-22T08:43:03.934Z,23.60
2019-03-22T08:45:31.742Z,23.90
2019-03-22T08:47:59.635Z,25.00
2019-03-22T08:50:27.594Z,25.20
2019-03-22T08:52:55.530Z,24.80
2019-03-22T08:55:24.053Z,25.40
2019-03-22T08:57:52.533Z,23.80
2019-03-22T09:00:20.656Z,23.40
2019-03-22T09:02:49.870Z,23.60
2019-03-22T09:05:18.035Z,25.10
2019-03-22T09:07:46.061Z,25.00
2019-03-22T09:10:14.453Z,24.60
2019-03-22T09:12:42.439Z,25.40
2019-03-22T09:15:10.276Z,24.90
2019-03-22T09:17:38.961Z,24.90
2019-03-22T09:20:08.750Z,25.30
2019-03-22T09:22:37.943Z,25.30
2019-03-22T09:25:07.292Z,25.60
2019-03-22T09:27:37.448Z,25.50
2019-03-22T09:30:07.302Z,25.50
2019-03-22T09:32:35.931Z,24.50
2019-03-22T09:35:05.403Z,24.30
2019-03-22T09:37:34.827Z,23.10
2019-03-22T09:40:04.179Z,22.10
2019-03-22T09:42:33.799Z,21.80
2019-03-22T09:45:02.008Z,22.60
2019-03-22T09:47:30.802Z,23.10
2019-03-22T09:49:59.848Z,22.80
2019-03-22T09:52:28.564Z,22.80
2019-03-22T09:54:57.687Z,23.20
2019-03-22T09:57:26.470Z,22.80
2019-03-22T09:59:55.329Z,22.30
2019-03-22T10:02:24.095Z,22.40
2019-03-22T10:04:53.025Z,22.50
2019-03-22T10:07:22.405Z,22.40
2019-03-22T10:09:51.606Z,21.80
2019-03-22T10:12:21.315Z,22.00
2019-03-22T10:14:50.473Z,21.80
2019-03-22T10:17:18.462Z,22.20
2019-03-22T10:19:47.318Z,22.30
2019-03-22T10:22:16.349Z,22.20
2019-03-22T10:24:46.355Z,22.90
2019-03-22T10:27:19.881Z,23.40
2019-03-22T10:29:48.627Z,23.60
2019-03-22T10:32:18.110Z,23.80
2019-03-22T10:34:46.638Z,24.30
2019-03-22T10:37:14.261Z,24.80
2019-03-22T10:39:44.075Z,24.20
2019-03-22T10:42:12.813Z,23.90
2019-03-22T10:44:41.135Z,23.70
2019-03-22T10:47:09.341Z,23.60
2019-03-22T10:49:41.718Z,23.70
2019-03-22T10:52:09.259Z,23.60
2019-03-22T10:54:37.303Z,23.60
2019-03-22T10:57:05.429Z,23.80
2019-03-22T10:59:34.391Z,24.30
2019-03-22T11:02:04.409Z,24.40
2019-03-22T11:04:34.140Z,24.20
2019-03-22T11:07:03.521Z,23.60
2019-03-22T11:09:32.333Z,23.20
2019-03-22T11:12:11.440Z,23.40
2019-03-22T11:14:32.159Z,23.50
2019-03-22T11:17:00.873Z,23.60
2019-03-22T11:19:30.288Z,23.10
2019-03-22T11:21:59.410Z,22.80
2019-03-22T11:24:28.563Z,22.40
2019-03-22T11:26:57.707Z,22.20
2019-03-22T11:29:26.562Z,22.20
2019-03-22T11:31:55.733Z,22.20
2019-03-22T11:34:24.944Z,22.40
2019-03-22T11:36:54.205Z,22.40
2019-03-22T11:39:23.059Z,22.50
2019-03-22T11:41:52.138Z,22.40
2019-03-22T11:44:21.293Z,22.60
2019-03-22T11:46:50.102Z,22.90
2019-03-22T11:49:19.216Z,23.20
2019-03-22T11:51:48.128Z,23.40
2019-03-22T11:54:17.657Z,23.40
2019-03-22T11:56:46.890Z,23.20
2019-03-22T11:59:15.609Z,23.10
2019-03-22T12:01:44.572Z,23.00
2019-03-22T12:04:13.439Z,23.40
2019-03-22T12:06:42.385Z,23.60
2019-03-22T12:09:11.348Z,23.40
2019-03-22T12:11:42.078Z,23.40
2019-03-22T12:14:10.734Z,23.70
2019-03-22T12:16:39.618Z,24.10
2019-03-22T12:19:08.622Z,23.30
2019-03-22T12:21:37.195Z,23.80
2019-03-22T12:24:06.036Z,24.00
2019-03-22T12:26:35.157Z,23.70
2019-03-22T12:29:04.465Z,23.90
2019-03-22T12:31:33.457Z,23.80
2019-03-22T12:34:04.154Z,23.70
2019-03-22T12:36:33.114Z,24.10
2019-03-22T12:39:01.834Z,24.00
2019-03-22T12:41:30.448Z,23.80
2019-03-22T12:43:59.481Z,23.40
2019-03-22T12:46:28.518Z,23.60
2019-03-22T12:48:57.644Z,23.60
2019-03-22T12:51:26.364Z,23.80
2019-03-22T12:53:55.340Z,23.50
2019-03-22T12:56:24.597Z,23.10
2019-03-22T12:58:54.006Z,22.90
2019-03-22T13:01:22.862Z,23.20
2019-03-22T13:03:51.600Z,23.30
2019-03-22T13:06:20.334Z,23.30
2019-03-22T13:08:49.426Z,22.90
2019-03-22T13:11:18.477Z,22.70
2019-03-22T13:13:47.669Z,22.80
2019-03-22T13:16:16.591Z,22.70
2019-03-22T13:18:50.091Z,22.50
2019-03-22T13:21:16.867Z,22.80
2019-03-22T13:23:46.005Z,23.00
2019-03-22T13:26:13.904Z,22.90
2019-03-22T13:28:42.501Z,23.20
2019-03-22T13:31:11.713Z,22.70
2019-03-22T13:33:41.458Z,22.90
2019-03-22T13:36:10.341Z,22.90
2019-03-22T13:38:39.526Z,22.50
2019-03-22T13:41:08.498Z,22.80
2019-03-22T13:43:37.505Z,23.20
2019-03-22T13:46:06.254Z,22.70
2019-03-22T13:48:35.695Z,22.20
2019-03-22T13:51:04.404Z,22.40
2019-03-22T13:53:33.838Z,22.80
2019-03-22T13:56:02.573Z,23.10
2019-03-22T13:58:31.190Z,23.30
2019-03-22T14:00:59.983Z,23.40
2019-03-22T14:03:28.717Z,23.70
2019-03-22T14:05:57.422Z,23.70
2019-03-22T14:08:27.102Z,23.60
2019-03-22T14:10:55.837Z,23.70
2019-03-22T14:13:24.557Z,23.90
2019-03-22T14:15:53.174Z,23.80
2019-03-22T14:18:22.049Z,23.80
2019-03-22T14:20:50.746Z,23.50
2019-03-22T14:23:19.482Z,23.40
2019-03-22T14:25:48.708Z,23.20
2019-03-22T14:28:17.326Z,23.30
2019-03-22T14:30:46.481Z,23.10
2019-03-22T14:33:15.458Z,22.90
2019-03-22T14:35:44.421Z,23.10
2019-03-22T14:38:13.425Z,23.00
2019-03-22T14:40:42.179Z,22.80
2019-03-22T14:43:11.237Z,23.00
2019-03-22T14:45:40.034Z,23.00
2019-03-22T14:48:09.218Z,23.00
2019-03-22T14:50:38.553Z,23.10
2019-03-22T14:53:07.919Z,22.80
2019-03-22T14:55:37.296Z,22.80
2019-03-22T14:58:06.274Z,22.70
2019-03-22T15:00:36.030Z,22.30
2019-03-22T15:03:23.006Z,22.20
2019-03-22T15:05:55.429Z,22.40
2019-03-22T15:08:23.534Z,22.30
2019-03-22T15:10:52.768Z,22.00
2019-03-22T15:13:26.090Z,22.00
2019-03-22T15:16:14.751Z,21.90
2019-03-22T15:18:51.749Z,21.80
2019-03-22T15:21:40.110Z,21.70
2019-03-22T15:24:43.529Z,21.60
2019-03-22T15:27:29.697Z,21.60
2019-03-22T15:30:15.674Z,21.50
2019-03-22T15:33:07.694Z,21.30
2019-03-22T15:35:58.236Z,21.50
2019-03-22T15:38:45.960Z,21.80
2019-03-22T15:41:15.032Z,21.90
2019-03-22T15:43:44.076Z,21.80
2019-03-22T15:46:13.336Z,21.60
2019-03-22T15:48:42.125Z,21.70
2019-03-22T15:51:11.145Z,21.50
2019-03-22T15:53:40.313Z,21.60
2019-03-22T15:56:09.274Z,21.50
2019-03-22T15:58:38.298Z,21.40
2019-03-22T16:01:07.193Z,21.40
2019-03-22T16:03:44.099Z,21.20
2019-03-22T16:06:07.549Z,21.10
2019-03-22T16:08:36.594Z,21.10
2019-03-22T16:11:05.690Z,21.10
2019-03-22T16:13:34.393Z,21.10
2019-03-22T16:16:03.401Z,21.10
2019-03-22T16:18:32.239Z,21.10
2019-03-22T16:21:01.382Z,21.10
2019-03-22T16:23:30.489Z,21.20
2019-03-22T16:25:59.210Z,21.20
2019-03-22T16:28:28.536Z,21.20
2019-03-22T16:30:57.564Z,21.30
2019-03-22T16:33:26.397Z,21.30
2019-03-22T16:35:55.349Z,21.20
2019-03-22T16:38:24.341Z,21.10
2019-03-22T16:40:53.301Z,21.10
2019-03-22T16:43:22.243Z,21.20
2019-03-22T16:45:51.322Z,21.10
2019-03-22T16:48:20.343Z,21.10
2019-03-22T16:50:49.087Z,21.00
2019-03-22T16:53:18.463Z,21.10
2019-03-22T16:55:47.776Z,21.10
2019-03-22T16:58:16.918Z,21.10
2019-03-22T17:00:46.106Z,20.90
2019-03-22T17:03:15.316Z,20.80
2019-03-22T17:05:44.110Z,20.80
2019-03-22T17:08:13.385Z,20.80
2019-03-22T17:10:42.368Z,20.80
2019-03-22T17:13:11.531Z,20.80
2019-03-22T17:15:40.310Z,20.70
2019-03-22T17:18:09.348Z,20.60
2019-03-22T17:20:38.623Z,20.50
2019-03-22T17:23:08.120Z,20.40
2019-03-22T17:25:36.837Z,20.30
2019-03-22T17:28:05.617Z,20.30
2019-03-22T17:30:34.382Z,20.20
2019-03-22T17:33:03.449Z,20.20
2019-03-22T17:35:32.154Z,20.20
2019-03-22T17:38:00.856Z,20.00
2019-03-22T17:40:29.905Z,19.90
2019-03-22T17:42:58.858Z,19.80
2019-03-22T17:45:27.705Z,19.70
2019-03-22T17:47:56.519Z,19.60
2019-03-22T17:50:25.447Z,19.50
2019-03-22T17:52:54.378Z,19.40
2019-03-22T17:55:23.203Z,19.30
2019-03-22T17:57:53.807Z,19.20
2019-03-22T18:00:23.972Z,19.10
2019-03-22T18:02:52.929Z,19.00
2019-03-22T18:05:22.034Z,19.00
2019-03-22T18:07:50.913Z,18.90
2019-03-22T18:10:19.583Z,18.80
2019-03-22T18:12:48.630Z,18.70
2019-03-22T18:15:17.394Z,18.60
2019-03-22T18:17:46.190Z,18.50
2019-03-22T18:20:15.612Z,18.50
2019-03-22T18:22:44.738Z,18.40
2019-03-22T18:25:15.713Z,18.30
2019-03-22T18:27:45.420Z,18.20
2019-03-22T18:30:14.306Z,18.10
2019-03-22T18:32:42.273Z,18.00
2019-03-22T18:35:11.401Z,17.80
2019-03-22T18:37:39.298Z,17.80
2019-03-22T18:40:10.697Z,17.60
2019-03-22T18:42:38.562Z,17.50
2019-03-22T18:45:07.213Z,17.30
2019-03-22T18:47:35.136Z,17.20
2019-03-22T18:50:06.000Z,17.10
2019-03-22T18:52:34.950Z,17.00
2019-03-22T18:55:04.176Z,16.80
2019-03-22T18:57:32.954Z,16.80
2019-03-22T19:00:01.877Z,16.70
2019-03-22T19:02:30.909Z,16.60
2019-03-22T19:04:59.805Z,16.50
2019-03-22T19:07:29.136Z,16.40
2019-03-22T19:09:57.914Z,16.30
2019-03-22T19:12:26.710Z,16.20
2019-03-22T19:14:55.463Z,16.10
2019-03-22T19:17:24.177Z,16.00
2019-03-22T19:19:52.928Z,15.90
2019-03-22T19:22:21.782Z,15.80
2019-03-22T19:24:50.624Z,15.80
2019-03-22T19:27:20.544Z,15.80
2019-03-22T19:29:58.310Z,15.60
2019-03-22T19:33:18.875Z,15.60
2019-03-22T19:35:47.130Z,15.70
2019-03-22T19:38:15.025Z,15.70
2019-03-22T19:40:42.829Z,15.70
2019-03-22T19:43:10.705Z,15.70
2019-03-22T19:45:38.682Z,15.60
2019-03-22T19:48:06.589Z,15.60
2019-03-22T19:50:34.529Z,15.50
2019-03-22T19:53:02.414Z,15.40
2019-03-22T19:55:46.766Z,15.30
2019-03-22T19:58:15.964Z,15.20
2019-03-22T20:00:45.580Z,15.10
2019-03-22T20:03:14.759Z,15.00
2019-03-22T20:05:43.577Z,15.10
2019-03-22T20:08:13.871Z,15.00
2019-03-22T20:10:43.716Z,14.90
2019-03-22T20:13:13.114Z,15.00
2019-03-22T20:15:40.753Z,14.90
2019-03-22T20:18:08.545Z,14.90
2019-03-22T20:20:36.361Z,14.70
2019-03-22T20:23:04.216Z,14.60
2019-03-22T20:25:32.019Z,14.50
2019-03-22T20:27:59.947Z,14.50
2019-03-22T20:30:28.021Z,14.60
2019-03-22T20:32:55.805Z,14.70
2019-03-22T20:35:23.745Z,14.80
2019-03-22T20:37:51.551Z,14.80
2019-03-22T20:40:19.569Z,14.90
2019-03-22T20:42:47.434Z,15.10
2019-03-22T20:45:23.534Z,15.30
2019-03-22T20:47:46.003Z,15.40
2019-03-22T20:50:14.857Z,15.30
2019-03-22T20:52:43.723Z,15.40
2019-03-22T20:55:14.329Z,15.60
2019-03-22T20:57:42.749Z,15.70
2019-03-22T21:00:11.290Z,15.70
2019-03-22T21:02:40.383Z,15.70
2019-03-22T21:05:10.050Z,15.70
2019-03-22T21:07:39.037Z,15.70
2019-03-22T21:10:09.041Z,15.50
2019-03-22T21:12:38.406Z,15.40
2019-03-22T21:15:07.434Z,15.50
2019-03-22T21:17:36.502Z,15.70
2019-03-22T21:20:06.154Z,15.50
2019-03-22T21:22:35.754Z,15.60
2019-03-22T21:25:04.474Z,15.70
2019-03-22T21:27:33.422Z,15.60
2019-03-22T21:30:02.412Z,15.60
2019-03-22T21:32:31.546Z,15.60
2019-03-22T21:35:01.131Z,15.60
2019-03-22T21:37:29.171Z,15.50
2019-03-22T21:39:58.202Z,15.50
2019-03-22T21:42:27.537Z,15.60
2019-03-22T21:44:56.547Z,15.50
2019-03-22T21:47:25.788Z,15.60
2019-03-22T21:49:54.722Z,15.50
2019-03-22T21:52:23.649Z,15.50
2019-03-22T21:54:52.333Z,15.40
2019-03-22T21:57:21.834Z,15.50
2019-03-22T21:59:50.781Z,15.40
2019-03-22T22:02:20.808Z,15.30
2019-03-22T22:04:49.704Z,15.40
2019-03-22T22:07:18.784Z,15.40
2019-03-22T22:09:46.787Z,15.40
2019-03-22T22:12:16.042Z,15.20
2019-03-22T22:14:45.379Z,15.10
2019-03-22T22:17:14.666Z,15.20
2019-03-22T22:19:42.443Z,15.20
2019-03-22T22:22:11.825Z,15.20
2019-03-22T22:24:40.565Z,15.00
2019-03-22T22:27:13.945Z,15.00
2019-03-22T22:29:41.853Z,15.00
2019-03-22T22:32:10.874Z,15.10
2019-03-22T22:34:40.133Z,15.10
2019-03-22T22:37:09.287Z,15.10
2019-03-22T22:39:38.566Z,15.10
2019-03-22T22:42:07.598Z,15.10
2019-03-22T22:44:36.242Z,15.10
2019-03-22T22:47:05.503Z,15.10
2019-03-22T22:49:34.550Z,15.10
2019-03-22T22:52:03.489Z,15.00
2019-03-22T22:54:32.544Z,15.00
2019-03-22T22:57:02.080Z,14.90
2019-03-22T22:59:31.094Z,14.80
2019-03-22T23:02:00.527Z,14.90
2019-03-22T23:04:29.524Z,14.70
2019-03-22T23:06:58.713Z,14.60
2019-03-22T23:09:27.374Z,14.20
2019-03-22T23:11:56.479Z,14.20
2019-03-22T23:14:25.454Z,14.10
2019-03-22T23:16:54.459Z,14.00
2019-03-22T23:19:23.778Z,13.90
2019-03-22T23:21:52.678Z,13.70
2019-03-22T23:24:21.921Z,13.60
2019-03-22T23:26:50.716Z,13.40
2019-03-22T23:29:20.394Z,13.20
2019-03-22T23:31:49.325Z,13.20
2019-03-22T23:34:17.661Z,12.90
2019-03-22T23:36:45.764Z,12.80
2019-03-22T23:39:14.276Z,12.70
2019-03-22T23:41:42.061Z,12.50
2019-03-22T23:44:10.238Z,12.40
2019-03-22T23:46:38.452Z,12.30
2019-03-22T23:49:06.270Z,12.20
2019-03-22T23:51:34.389Z,12.10
2019-03-22T23:54:02.450Z,12.00
2019-03-22T23:56:30.957Z,11.90
2019-03-22T23:58:59.110Z,11.90
